Time;durP1;ratioP1;P1;durP2;ratioP2;P2;SDS_P1;SDS_P2;PMS_P1;PMS_P2;Temp;Humidity;BMP_temperature;BMP_pressure;BME280_temperature;BME280_humidity;BME280_pressure;Samples;Min_cycle;Max_cycle;Signal;HPM_P1;HPM_P2
2023/11/20 00:00:30;;;;;;;9.98;2.78;;;17.80;57.80;;;;;;5052250;28;20198;-60
2023/11/20 00:02:59;;;;;;;10.18;2.50;;;17.80;57.80;;;;;;5052255;28;20241;-60
2023/11/20 00:05:26;;;;;;;9.80;2.30;;;17.80;57.80;;;;;;5052170;28;20283;-61
2023/11/20 00:07:53;;;;;;;10.25;2.40;;;17.80;57.80;;;;;;5052161;28;20322;-61
2023/11/20 00:10:20;;;;;;;10.80;2.45;;;17.80;58.40;;;;;;5052307;28;20205;-60
2023/11/20 00:12:47;;;;;;;5.80;2.03;;;17.80;57.80;;;;;;5052199;28;20192;-61
2023/11/20 00:15:14;;;;;;;9.13;2.35;;;17.80;57.80;;;;;;5052121;28;20190;-60
2023/11/20 00:17:41;;;;;;;9.40;2.45;;;17.80;57.80;;;;;;5052176;28;20188;-61
2023/11/20 00:20:10;;;;;;;11.63;2.20;;;17.80;57.80;;;;;;5051805;28;20550;-61
2023/11/20 00:22:38;;;;;;;11.65;2.20;;;17.80;57.80;;;;;;5052212;28;20649;-59
2023/11/20 00:25:06;;;;;;;11.95;2.58;;;17.80;58.40;;;;;;5052176;28;20261;-61
2023/11/20 00:27:33;;;;;;;9.98;2.08;;;17.80;57.80;;;;;;5052087;28;20238;-60
2023/11/20 00:29:59;;;;;;;9.80;2.60;;;17.80;57.80;;;;;;5051746;28;20569;-61
2023/11/20 00:32:26;;;;;;;11.82;2.92;;;17.80;57.80;;;;;;5052132;28;20215;-61
2023/11/20 00:34:53;;;;;;;7.10;2.38;;;17.80;57.80;;;;;;5051941;28;20206;-61
2023/11/20 00:37:22;;;;;;;8.25;2.20;;;17.80;57.80;;;;;;5052171;28;20307;-61
2023/11/20 00:39:49;;;;;;;10.82;2.67;;;17.80;57.80;;;;;;5051896;28;20206;-61
2023/11/20 00:42:16;;;;;;;11.10;2.30;;;17.80;57.80;;;;;;5052042;28;20302;-61
2023/11/20 00:44:43;;;;;;;9.90;2.22;;;17.80;57.80;;;;;;5051897;28;20555;-60
2023/11/20 00:47:10;;;;;;;10.73;2.33;;;17.70;57.70;;;;;;5051883;28;20245;-60
2023/11/20 00:49:38;;;;;;;9.00;2.67;;;17.80;57.80;;;;;;5051864;28;20188;-60
2023/11/20 00:52:05;;;;;;;10.60;2.53;;;17.80;57.70;;;;;;5051890;28;20298;-61
2023/11/20 00:54:33;;;;;;;10.38;2.50;;;17.80;57.80;;;;;;5051789;28;20271;-61
2023/11/20 00:57:00;;;;;;;10.00;2.70;;;17.80;57.80;;;;;;5051915;28;20237;-60
2023/11/20 00:59:27;;;;;;;9.98;2.30;;;17.70;57.70;;;;;;5051702;28;20579;-61
2023/11/20 01:01:54;;;;;;;14.40;2.55;;;17.70;57.70;;;;;;5051505;28;20590;-61
2023/11/20 01:04:21;;;;;;;11.27;2.38;;;17.70;57.70;;;;;;5051357;28;20188;-60
2023/11/20 01:06:49;;;;;;;10.07;2.33;;;17.80;57.80;;;;;;5051211;28;20228;-60
2023/11/20 01:09:16;;;;;;;10.40;2.60;;;17.70;57.60;;;;;;5053082;28;20204;-60
2023/11/20 01:11:46;;;;;;;12.40;2.70;;;17.70;57.60;;;;;;5055392;28;20218;-59
2023/11/20 01:14:13;;;;;;;10.18;2.42;;;17.70;57.60;;;;;;5054959;28;20795;-61
2023/11/20 01:16:40;;;;;;;8.45;2.40;;;17.70;57.60;;;;;;5054939;28;20221;-60
2023/11/20 01:19:07;;;;;;;8.55;2.45;;;17.70;57.60;;;;;;5055158;28;20226;-60
2023/11/20 01:21:35;;;;;;;8.65;1.95;;;17.70;57.60;;;;;;5054714;28;20719;-61
2023/11/20 01:24:03;;;;;;;9.25;2.28;;;17.70;57.60;;;;;;5054711;28;20667;-59
2023/11/20 01:26:30;;;;;;;8.23;2.20;;;17.80;57.70;;;;;;5054757;28;20709;-60
2023/11/20 01:28:58;;;;;;;11.27;2.63;;;17.70;57.60;;;;;;5054623;28;20594;-60
2023/11/20 01:31:25;;;;;;;13.05;2.08;;;17.70;57.60;;;;;;5055004;28;20302;-61
2023/11/20 01:33:52;;;;;;;9.68;2.25;;;17.70;57.70;;;;;;5054499;28;20564;-61
2023/11/20 01:36:19;;;;;;;9.65;2.00;;;17.70;57.70;;;;;;5054575;28;20228;-61
2023/11/20 01:38:46;;;;;;;12.30;2.97;;;17.70;57.70;;;;;;5054484;28;20674;-61
2023/11/20 01:41:13;;;;;;;11.63;2.50;;;17.70;57.60;;;;;;5054774;28;20584;-61
2023/11/20 01:43:40;;;;;;;10.25;2.25;;;17.70;57.60;;;;;;5054673;28;20270;-60
2023/11/20 01:46:10;;;;;;;6.25;2.53;;;17.70;57.60;;;;;;5054662;28;20221;-60
2023/11/20 01:48:37;;;;;;;7.05;2.20;;;17.70;57.60;;;;;;5054510;28;20299;-61
2023/11/20 01:51:05;;;;;;;7.90;2.13;;;17.70;57.60;;;;;;5054425;28;20322;-60
2023/11/20 01:53:34;;;;;;;7.93;2.13;;;17.70;57.60;;;;;;5054473;28;20207;-61
2023/11/20 01:56:02;;;;;;;8.50;2.22;;;17.70;57.60;;;;;;5054413;28;20219;-60
2023/11/20 01:58:30;;;;;;;12.23;2.58;;;17.70;57.60;;;;;;5054099;28;20184;-60
2023/11/20 02:00:58;;;;;;;6.45;2.17;;;17.70;57.60;;;;;;5054423;28;20298;-59
2023/11/20 02:03:26;;;;;;;10.95;2.42;;;17.70;57.60;;;;;;5054016;28;20194;-61
2023/11/20 02:05:53;;;;;;;9.25;2.38;;;17.70;57.60;;;;;;5054240;28;20211;-59
2023/11/20 02:08:21;;;;;;;9.00;2.22;;;17.70;58.20;;;;;;5053912;28;20297;-61
2023/11/20 02:10:48;;;;;;;9.63;2.10;;;17.70;57.60;;;;;;5054343;28;20323;-60
2023/11/20 02:13:15;;;;;;;10.27;2.35;;;17.70;57.60;;;;;;5053797;28;20278;-59
2023/11/20 02:15:43;;;;;;;9.00;1.92;;;17.70;57.50;;;;;;5053979;28;20206;-60
2023/11/20 02:18:30;;;;;;;9.43;2.20;;;17.70;57.50;;;;;;5053785;28;20227;-61
2023/11/20 02:20:57;;;;;;;10.05;2.30;;;17.70;57.50;;;;;;5052557;28;20705;-60
2023/11/20 02:23:24;;;;;;;10.82;2.72;;;17.70;57.50;;;;;;5053947;28;20283;-60
2023/11/20 02:25:56;;;;;;;10.57;2.08;;;17.70;57.50;;;;;;5053862;28;20302;-60
2023/11/20 02:28:29;;;;;;;10.45;2.28;;;17.70;57.40;;;;;;5053459;28;20302;-61
2023/11/20 02:30:58;;;;;;;8.27;2.40;;;17.70;57.40;;;;;;5053357;28;20673;-60
2023/11/20 02:33:25;;;;;;;7.38;2.55;;;17.70;57.40;;;;;;5053451;28;20190;-60
2023/11/20 02:35:52;;;;;;;10.40;2.10;;;17.70;57.40;;;;;;5053549;28;20223;-61
2023/11/20 02:38:19;;;;;;;11.27;2.25;;;17.70;57.40;;;;;;5053604;28;20188;-60
2023/11/20 02:40:46;;;;;;;15.10;2.63;;;17.70;57.30;;;;;;5053500;28;20196;-60
2023/11/20 02:43:13;;;;;;;7.97;2.13;;;17.70;57.40;;;;;;5053543;28;20187;-61
2023/11/20 02:45:39;;;;;;;6.43;2.00;;;17.70;57.40;;;;;;5053341;28;20642;-61
2023/11/20 02:48:08;;;;;;;6.13;2.13;;;17.60;57.20;;;;;;5053275;28;20696;-60
2023/11/20 02:50:35;;;;;;;7.30;1.98;;;17.60;57.20;;;;;;5053265;28;20194;-60
2023/11/20 02:53:02;;;;;;;7.47;2.15;;;17.60;57.20;;;;;;5053350;28;20615;-60
2023/11/20 02:55:30;;;;;;;6.88;2.35;;;17.60;57.20;;;;;;5053347;28;20184;-61
2023/11/20 02:57:56;;;;;;;6.03;1.70;;;17.60;57.20;;;;;;5053802;28;20579;-61
2023/11/20 03:00:23;;;;;;;7.20;2.08;;;17.60;57.20;;;;;;5052774;28;20188;-60
2023/11/20 03:02:51;;;;;;;7.88;2.10;;;17.60;57.20;;;;;;5053400;28;20215;-60
2023/11/20 03:05:19;;;;;;;7.20;2.05;;;17.60;57.20;;;;;;5053356;28;20184;-61
2023/11/20 03:07:47;;;;;;;7.18;2.10;;;17.60;57.20;;;;;;5052700;28;20239;-60
2023/11/20 03:10:15;;;;;;;8.77;2.15;;;17.60;57.20;;;;;;5053270;28;20246;-61
2023/11/20 03:12:42;;;;;;;10.23;2.30;;;17.60;57.10;;;;;;5052789;28;20223;-60
2023/11/20 03:15:09;;;;;;;8.63;2.33;;;17.60;57.20;;;;;;5052793;28;20283;-60
2023/11/20 03:17:36;;;;;;;11.57;2.28;;;17.60;57.20;;;;;;5053021;28;20258;-60
2023/11/20 03:20:05;;;;;;;7.75;2.03;;;17.60;57.10;;;;;;5052866;28;20188;-60
2023/11/20 03:22:34;;;;;;;8.60;2.03;;;17.60;57.20;;;;;;5052899;28;20219;-61
2023/11/20 03:25:01;;;;;;;9.23;2.80;;;17.60;57.10;;;;;;5052847;28;20192;-60
2023/11/20 03:27:28;;;;;;;12.63;2.28;;;17.60;57.10;;;;;;5052846;28;20218;-60
2023/11/20 03:29:55;;;;;;;8.38;2.35;;;17.60;57.10;;;;;;5050949;28;20226;-60
2023/11/20 03:32:22;;;;;;;12.65;2.53;;;17.60;57.10;;;;;;5052249;28;20579;-61
2023/11/20 03:34:49;;;;;;;7.85;2.13;;;17.60;57.10;;;;;;5052243;28;20645;-60
2023/11/20 03:37:16;;;;;;;9.20;1.83;;;17.60;57.10;;;;;;5052797;28;20219;-61
2023/11/20 03:39:44;;;;;;;8.15;2.22;;;17.60;57.10;;;;;;5052558;28;20223;-59
2023/11/20 03:42:11;;;;;;;6.80;1.90;;;17.60;57.00;;;;;;5052303;28;20310;-61
2023/11/20 03:44:38;;;;;;;9.73;2.25;;;17.60;57.70;;;;;;5052485;28;20209;-60
2023/11/20 03:47:05;;;;;;;8.35;2.20;;;17.60;57.00;;;;;;5052542;28;20221;-60
2023/11/20 03:49:32;;;;;;;10.52;2.67;;;17.60;57.00;;;;;;5052368;28;20301;-60
2023/11/20 03:51:59;;;;;;;9.68;2.35;;;17.60;57.00;;;;;;5052176;28;20719;-61
2023/11/20 03:54:26;;;;;;;12.38;2.63;;;17.60;57.00;;;;;;5052358;28;20274;-60
2023/11/20 03:56:55;;;;;;;9.40;2.30;;;17.60;57.00;;;;;;5052213;28;20892;-60
2023/11/20 03:59:22;;;;;;;7.82;2.05;;;17.60;57.00;;;;;;5052246;28;20191;-60
2023/11/20 04:01:50;;;;;;;11.13;2.63;;;17.60;57.00;;;;;;5052363;28;20574;-61
2023/11/20 04:04:17;;;;;;;9.52;2.25;;;17.60;57.00;;;;;;5052205;28;20188;-61
2023/11/20 04:06:43;;;;;;;8.45;2.33;;;17.60;57.00;;;;;;5051917;28;20267;-61
2023/11/20 04:09:10;;;;;;;6.95;2.08;;;17.60;57.00;;;;;;5052425;28;20241;-61
2023/11/20 04:11:37;;;;;;;8.38;2.30;;;17.60;57.00;;;;;;5052401;28;20218;-60
2023/11/20 04:14:06;;;;;;;7.82;2.65;;;17.60;57.00;;;;;;5052196;28;20636;-60
2023/11/20 04:16:33;;;;;;;7.00;2.20;;;17.60;57.60;;;;;;5052132;28;20219;-59
2023/11/20 04:19:00;;;;;;;7.50;2.03;;;17.50;56.90;;;;;;5051836;28;20675;-61
2023/11/20 04:21:29;;;;;;;8.65;1.95;;;17.50;56.90;;;;;;5052143;28;20215;-60
2023/11/20 04:23:56;;;;;;;8.70;2.30;;;17.50;57.50;;;;;;5052095;28;20203;-60
2023/11/20 04:26:23;;;;;;;12.88;2.63;;;17.50;56.90;;;;;;5052174;28;20329;-60
2023/11/20 04:28:50;;;;;;;7.18;2.25;;;17.50;56.90;;;;;;5052003;28;20226;-61
2023/11/20 04:31:18;;;;;;;10.43;2.28;;;17.60;57.00;;;;;;5052015;28;20237;-60
2023/11/20 04:33:46;;;;;;;10.20;2.20;;;17.50;56.80;;;;;;5052000;28;20279;-60
2023/11/20 04:36:13;;;;;;;9.38;2.30;;;17.50;57.50;;;;;;5051916;28;20212;-59
2023/11/20 04:38:40;;;;;;;7.85;2.35;;;17.60;56.90;;;;;;5051976;28;20184;-60
2023/11/20 04:41:07;;;;;;;10.88;2.90;;;17.50;56.80;;;;;;5051753;28;20298;-60
2023/11/20 04:43:35;;;;;;;12.27;2.50;;;17.50;56.80;;;;;;5051901;28;20201;-60
2023/11/20 04:46:02;;;;;;;8.57;2.30;;;17.50;56.80;;;;;;5055710;28;20233;-60
2023/11/20 04:48:30;;;;;;;10.65;2.60;;;17.50;56.70;;;;;;5055769;28;20230;-61
2023/11/20 04:50:57;;;;;;;10.48;2.33;;;17.50;56.70;;;;;;5055634;28;20198;-60
2023/11/20 04:53:24;;;;;;;8.43;2.30;;;17.50;56.70;;;;;;5055252;28;20561;-61
2023/11/20 04:55:51;;;;;;;8.10;2.40;;;17.50;56.70;;;;;;5055542;28;20245;-61
2023/11/20 04:58:21;;;;;;;7.47;2.17;;;17.50;56.70;;;;;;5055806;28;20202;-60
2023/11/20 05:00:48;;;;;;;10.93;2.72;;;17.50;56.60;;;;;;5055095;28;20564;-60
2023/11/20 05:03:16;;;;;;;14.00;3.60;;;17.50;56.60;;;;;;5055450;28;20270;-61
2023/11/20 05:05:44;;;;;;;12.23;2.38;;;17.50;56.60;;;;;;5055109;28;20842;-60
2023/11/20 05:08:11;;;;;;;8.80;2.03;;;17.50;56.60;;;;;;5055179;28;20243;-59
2023/11/20 05:10:38;;;;;;;11.05;2.65;;;17.50;56.60;;;;;;5055184;28;20198;-60
2023/11/20 05:13:05;;;;;;;8.43;2.33;;;17.50;56.60;;;;;;5055454;28;20723;-61
2023/11/20 05:15:32;;;;;;;11.60;2.50;;;17.50;56.60;;;;;;5054941;28;20668;-61
2023/11/20 05:17:59;;;;;;;9.32;2.30;;;17.50;56.60;;;;;;5055416;28;20298;-61
2023/11/20 05:20:26;;;;;;;10.52;3.20;;;17.50;56.60;;;;;;5054835;28;20649;-60
2023/11/20 05:22:54;;;;;;;13.90;2.65;;;17.50;56.50;;;;;;5055272;28;20307;-60
2023/11/20 05:25:21;;;;;;;11.07;2.55;;;17.50;56.50;;;;;;5055108;28;20191;-60
2023/11/20 05:27:48;;;;;;;8.68;2.17;;;17.50;56.50;;;;;;5055168;28;20211;-60
2023/11/20 05:30:15;;;;;;;6.18;2.28;;;17.50;56.40;;;;;;5054832;28;20219;-60
2023/11/20 05:32:42;;;;;;;13.63;3.05;;;17.50;56.40;;;;;;5055113;28;20211;-61
2023/11/20 05:35:09;;;;;;;10.18;2.80;;;17.50;56.40;;;;;;5054825;28;20191;-61
2023/11/20 05:37:36;;;;;;;9.48;2.63;;;17.50;56.50;;;;;;5055000;28;20285;-62
2023/11/20 05:40:05;;;;;;;10.52;2.50;;;17.50;56.50;;;;;;5054717;28;20579;-60
2023/11/20 05:42:32;;;;;;;11.07;2.50;;;17.50;56.60;;;;;;5054894;28;20299;-60
2023/11/20 05:44:59;;;;;;;9.20;2.42;;;17.50;56.60;;;;;;5054657;28;20187;-60
2023/11/20 05:47:26;;;;;;;10.15;2.63;;;17.60;57.20;;;;;;5054716;28;20592;-60
2023/11/20 05:49:53;;;;;;;7.13;2.17;;;17.60;56.50;;;;;;5054524;28;20262;-59
2023/11/20 05:52:20;;;;;;;6.30;1.90;;;17.70;56.50;;;;;;5054527;28;20219;-60
2023/11/20 05:54:47;;;;;;;8.93;2.22;;;17.70;56.40;;;;;;5054311;28;20209;-61
2023/11/20 05:57:17;;;;;;;9.80;2.00;;;17.80;56.30;;;;;;5054214;28;20701;-61
2023/11/20 05:59:46;;;;;;;7.03;2.40;;;17.80;56.20;;;;;;5054201;28;20192;-60
2023/11/20 06:02:13;;;;;;;9.50;2.50;;;17.90;56.10;;;;;;5054388;28;20239;-61
2023/11/20 06:04:40;;;;;;;8.45;2.92;;;18.00;56.10;;;;;;5054530;28;20274;-60
2023/11/20 06:07:07;;;;;;;10.98;2.45;;;18.10;55.90;;;;;;5053878;28;20235;-60
2023/11/20 06:09:34;;;;;;;10.02;2.20;;;18.10;55.80;;;;;;5054423;28;20267;-61
2023/11/20 06:12:02;;;;;;;8.80;2.60;;;18.20;55.60;;;;;;5054171;28;20215;-60
2023/11/20 06:14:30;;;;;;;6.68;2.08;;;18.20;55.50;;;;;;5053751;28;20599;-61
2023/11/20 06:16:57;;;;;;;8.40;2.67;;;18.30;55.40;;;;;;5054067;28;20216;-62
2023/11/20 06:19:27;;;;;;;6.53;2.15;;;18.30;55.30;;;;;;5053770;28;20187;-61
2023/11/20 06:21:55;;;;;;;7.28;2.00;;;18.40;55.20;;;;;;5053936;28;20211;-61
2023/11/20 06:24:22;;;;;;;9.43;2.30;;;18.50;55.20;;;;;;5053965;28;20279;-61
2023/11/20 06:26:49;;;;;;;8.82;2.05;;;18.50;55.00;;;;;;5053882;28;20302;-59
2023/11/20 06:29:16;;;;;;;12.10;2.90;;;18.50;55.00;;;;;;5054059;28;20310;-60
2023/11/20 06:31:44;;;;;;;11.85;2.78;;;18.50;54.90;;;;;;5053465;28;20215;-61
2023/11/20 06:34:11;;;;;;;7.90;1.88;;;18.60;54.90;;;;;;5053743;28;20198;-60
2023/11/20 06:36:38;;;;;;;9.48;2.58;;;18.60;54.70;;;;;;5053736;28;20222;-61
2023/11/20 06:39:06;;;;;;;9.65;2.47;;;18.60;54.60;;;;;;5053463;28;20196;-61
2023/11/20 06:41:34;;;;;;;11.00;2.50;;;18.70;54.60;;;;;;5053559;28;20246;-60
2023/11/20 06:44:01;;;;;;;11.45;2.70;;;18.70;54.60;;;;;;5053568;28;20192;-61
2023/11/20 06:46:28;;;;;;;11.63;2.75;;;18.70;54.50;;;;;;5053453;28;20312;-61
2023/11/20 06:48:56;;;;;;;7.82;2.50;;;18.70;54.50;;;;;;5053361;28;20215;-61
2023/11/20 06:51:23;;;;;;;12.60;2.13;;;18.70;54.50;;;;;;5053383;28;20216;-60
2023/11/20 06:53:51;;;;;;;7.38;2.22;;;18.80;54.60;;;;;;5053406;28;20266;-61
2023/11/20 06:56:18;;;;;;;11.07;2.30;;;18.80;54.60;;;;;;5053264;28;20219;-60
2023/11/20 06:58:45;;;;;;;9.63;2.28;;;18.80;54.60;;;;;;5052936;28;20737;-61
2023/11/20 07:01:12;;;;;;;9.57;2.53;;;18.90;54.70;;;;;;5053045;28;20584;-61
2023/11/20 07:03:42;;;;;;;9.68;2.20;;;18.90;54.60;;;;;;5053106;28;20211;-61
2023/11/20 07:06:11;;;;;;;7.78;2.40;;;18.90;54.60;;;;;;5052581;28;20654;-60
2023/11/20 07:08:38;;;;;;;9.38;2.53;;;18.90;54.60;;;;;;5052457;28;20283;-61
2023/11/20 07:11:05;;;;;;;11.23;2.53;;;18.90;54.50;;;;;;5052906;28;20731;-60
2023/11/20 07:13:32;;;;;;;9.95;2.35;;;18.90;54.40;;;;;;5052782;28;20681;-61
2023/11/20 07:15:59;;;;;;;9.95;2.72;;;19.00;54.40;;;;;;5053162;28;20198;-61
2023/11/20 07:18:26;;;;;;;8.85;2.20;;;19.00;54.40;;;;;;5052927;28;20192;-61
2023/11/20 07:20:54;;;;;;;8.93;2.40;;;19.00;54.40;;;;;;5052778;28;20287;-61
2023/11/20 07:23:23;;;;;;;10.80;2.13;;;19.00;54.30;;;;;;5052809;28;20625;-61
2023/11/20 07:25:49;;;;;;;6.32;2.35;;;19.00;54.30;;;;;;5052841;28;20278;-60
2023/11/20 07:28:17;;;;;;;10.15;2.28;;;19.00;54.30;;;;;;5053124;28;20217;-61
2023/11/20 07:30:44;;;;;;;9.32;2.72;;;19.00;54.20;;;;;;5052662;28;20215;-61
2023/11/20 07:33:11;;;;;;;8.63;2.28;;;19.10;54.30;;;;;;5052896;28;20237;-60
2023/11/20 07:35:38;;;;;;;9.35;2.45;;;19.10;54.20;;;;;;5052652;28;20270;-61
2023/11/20 07:38:06;;;;;;;9.50;2.60;;;19.10;54.20;;;;;;5052442;28;20768;-60
2023/11/20 07:40:34;;;;;;;8.93;2.45;;;19.10;54.20;;;;;;5052520;28;20199;-61
2023/11/20 07:43:01;;;;;;;7.50;2.30;;;19.10;54.20;;;;;;5052707;28;20220;-60
2023/11/20 07:45:28;;;;;;;7.05;2.28;;;19.10;54.20;;;;;;5052493;28;20280;-61
2023/11/20 07:47:55;;;;;;;10.40;2.83;;;19.10;54.10;;;;;;5052590;28;20265;-60
2023/11/20 07:50:22;;;;;;;7.25;1.88;;;19.20;54.20;;;;;;5051976;28;20595;-61
2023/11/20 07:52:49;;;;;;;8.48;2.60;;;19.20;54.20;;;;;;5052291;28;20689;-61
2023/11/20 07:55:15;;;;;;;8.63;2.65;;;19.20;54.20;;;;;;5052098;28;20645;-61
2023/11/20 07:57:44;;;;;;;6.30;2.03;;;19.20;54.20;;;;;;5052424;28;20303;-60
2023/11/20 08:00:12;;;;;;;9.50;2.72;;;19.20;54.10;;;;;;5052284;28;20191;-62
2023/11/20 08:02:39;;;;;;;9.60;2.05;;;19.20;54.10;;;;;;5052324;28;20298;-61
2023/11/20 08:05:08;;;;;;;8.57;2.15;;;19.20;54.10;;;;;;5051907;28;20200;-59
2023/11/20 08:07:35;;;;;;;10.60;2.50;;;19.30;54.20;;;;;;5052111;28;20239;-60
2023/11/20 08:10:03;;;;;;;11.43;2.70;;;19.20;54.10;;;;;;5052147;28;20227;-61
2023/11/20 08:12:30;;;;;;;6.93;2.17;;;19.20;54.10;;;;;;5052315;28;20254;-61
2023/11/20 08:14:59;;;;;;;7.22;2.22;;;19.30;54.20;;;;;;5052133;28;20569;-60
2023/11/20 08:17:26;;;;;;;10.68;2.45;;;19.30;54.10;;;;;;5052315;28;20584;-60
2023/11/20 08:19:53;;;;;;;9.32;2.50;;;19.30;54.20;;;;;;5054581;28;20233;-60
2023/11/20 08:22:20;;;;;;;6.95;2.20;;;19.30;54.80;;;;;;5056344;28;20226;-61
2023/11/20 08:24:47;;;;;;;7.30;1.95;;;19.30;54.20;;;;;;5056164;28;20592;-60
2023/11/20 08:27:13;;;;;;;9.30;2.50;;;19.30;54.80;;;;;;5056049;28;20741;-61
2023/11/20 08:29:40;;;;;;;5.75;2.10;;;19.30;54.20;;;;;;5056055;28;20218;-61
2023/11/20 08:32:09;;;;;;;7.45;2.05;;;19.30;54.20;;;;;;5056026;28;20221;-62
2023/11/20 08:34:36;;;;;;;8.88;2.58;;;19.30;54.20;;;;;;5055964;28;20196;-61
2023/11/20 08:37:03;;;;;;;12.60;2.33;;;19.30;54.20;;;;;;5056165;28;20254;-60
2023/11/20 08:39:33;;;;;;;7.88;2.60;;;19.30;54.20;;;;;;5055588;28;20570;-60
2023/11/20 08:42:00;;;;;;;8.80;2.42;;;19.30;54.20;;;;;;5055937;28;20223;-60
2023/11/20 08:44:27;;;;;;;9.35;2.25;;;19.30;54.10;;;;;;5055823;28;20221;-62
2023/11/20 08:46:54;;;;;;;7.55;2.03;;;19.40;54.30;;;;;;5055776;28;20310;-61
2023/11/20 08:49:22;;;;;;;7.70;2.42;;;19.40;54.30;;;;;;5055378;28;20306;-61
2023/11/20 08:51:49;;;;;;;8.63;2.40;;;19.40;54.30;;;;;;5055644;28;20215;-60
2023/11/20 08:54:16;;;;;;;8.48;2.25;;;19.40;54.30;;;;;;5055613;28;20274;-60
2023/11/20 08:56:45;;;;;;;8.15;2.10;;;19.40;54.30;;;;;;5055290;28;20720;-60
2023/11/20 08:59:11;;;;;;;8.45;2.67;;;19.40;54.40;;;;;;5055608;28;20188;-61
2023/11/20 09:01:39;;;;;;;11.50;2.50;;;19.40;54.30;;;;;;5055411;28;20310;-60
2023/11/20 09:04:06;;;;;;;7.68;2.20;;;19.40;54.30;;;;;;5055520;28;20215;-62
2023/11/20 09:06:34;;;;;;;7.40;2.28;;;19.40;54.40;;;;;;5055222;28;20231;-60
2023/11/20 09:09:01;;;;;;;7.07;2.42;;;19.40;54.40;;;;;;5055613;28;20192;-61
2023/11/20 09:11:29;;;;;;;8.75;2.22;;;19.40;54.40;;;;;;5055422;28;20308;-61
2023/11/20 09:13:56;;;;;;;7.20;2.47;;;19.40;54.30;;;;;;5055276;28;20198;-60
2023/11/20 09:16:22;;;;;;;9.00;2.42;;;19.40;54.40;;;;;;5054958;28;20188;-60
2023/11/20 09:18:50;;;;;;;10.45;2.72;;;19.40;54.40;;;;;;5055690;28;20195;-60
2023/11/20 09:21:18;;;;;;;9.77;2.75;;;19.40;54.40;;;;;;5055245;28;20278;-61
2023/11/20 09:23:46;;;;;;;11.60;3.38;;;19.40;54.40;;;;;;5055136;28;20192;-62
2023/11/20 09:26:14;;;;;;;9.57;2.30;;;19.40;54.40;;;;;;5055025;28;20278;-60
2023/11/20 09:28:42;;;;;;;10.55;2.45;;;19.40;54.40;;;;;;5054995;28;20192;-61
2023/11/20 09:31:16;;;;;;;7.25;2.22;;;19.40;54.40;;;;;;5053928;28;20215;-60
2023/11/20 09:33:44;;;;;;;8.40;2.47;;;19.40;54.40;;;;;;5054928;28;20195;-59
2023/11/20 09:36:11;;;;;;;9.05;2.40;;;19.40;54.40;;;;;;5054852;28;20279;-60
2023/11/20 09:38:38;;;;;;;8.93;2.65;;;19.40;54.40;;;;;;5054476;28;20183;-61
2023/11/20 09:41:07;;;;;;;7.78;2.95;;;19.50;54.50;;;;;;5054844;28;20195;-60
2023/11/20 09:43:35;;;;;;;5.25;1.98;;;19.50;54.50;;;;;;5054898;28;20218;-59
2023/11/20 09:46:06;;;;;;;9.65;2.53;;;19.50;54.50;;;;;;5054696;28;20187;-60
2023/11/20 09:48:34;;;;;;;8.55;2.33;;;19.50;54.50;;;;;;5055028;28;20265;-61
2023/11/20 09:51:02;;;;;;;8.38;2.38;;;19.40;54.40;;;;;;5054203;28;20262;-60
2023/11/20 09:53:34;;;;;;;8.55;2.00;;;19.50;54.50;;;;;;5054806;28;20216;-60
2023/11/20 09:56:03;;;;;;;6.72;1.80;;;19.40;54.60;;;;;;5054294;28;20657;-60
2023/11/20 09:58:31;;;;;;;9.40;2.03;;;19.40;54.50;;;;;;5054284;28;20652;-59
2023/11/20 10:01:06;;;;;;;7.43;2.15;;;19.50;54.60;;;;;;5054387;28;20198;-60
2023/11/20 10:03:36;;;;;;;6.13;2.17;;;19.50;54.70;;;;;;5054527;28;20219;-62
2023/11/20 10:06:05;;;;;;;7.38;2.17;;;19.50;54.70;;;;;;5053926;28;20569;-62
2023/11/20 10:08:35;;;;;;;7.75;2.28;;;19.50;54.70;;;;;;5054482;28;20216;-62
2023/11/20 10:11:03;;;;;;;8.25;2.03;;;19.50;54.70;;;;;;5054588;28;20228;-62
2023/11/20 10:13:31;;;;;;;9.88;2.45;;;19.50;55.30;;;;;;5054356;28;20219;-60
2023/11/20 10:16:00;;;;;;;6.82;2.30;;;19.50;54.70;;;;;;5053996;28;20271;-61
2023/11/20 10:18:27;;;;;;;5.45;1.90;;;19.50;54.70;;;;;;5054343;28;20348;-62
2023/11/20 10:20:54;;;;;;;8.15;2.22;;;19.50;54.70;;;;;;5054024;28;20210;-62
2023/11/20 10:23:22;;;;;;;8.10;2.38;;;19.50;55.30;;;;;;5053928;28;20216;-62
2023/11/20 10:25:50;;;;;;;5.50;1.80;;;19.50;54.70;;;;;;5053681;28;20188;-61
2023/11/20 10:28:17;;;;;;;5.43;2.00;;;19.50;54.70;;;;;;5053719;28;20709;-61
2023/11/20 10:30:46;;;;;;;6.13;2.50;;;19.50;54.70;;;;;;5053736;28;20299;-61
2023/11/20 10:33:18;;;;;;;7.20;2.08;;;19.50;54.70;;;;;;5053948;28;20231;-61
2023/11/20 10:35:45;;;;;;;8.88;2.20;;;19.50;55.20;;;;;;5053925;28;20273;-61
2023/11/20 10:38:12;;;;;;;7.03;1.80;;;19.50;55.20;;;;;;5053836;28;20220;-61
2023/11/20 10:40:41;;;;;;;7.63;2.30;;;19.50;55.70;;;;;;5053547;28;20222;-61
2023/11/20 10:43:09;;;;;;;10.25;2.15;;;19.50;56.20;;;;;;5052825;28;20215;-61
2023/11/20 10:45:37;;;;;;;12.77;2.42;;;19.50;56.60;;;;;;5053246;28;20684;-60
2023/11/20 10:48:07;;;;;;;8.15;2.25;;;19.50;57.60;;;;;;5053661;28;20306;-62
2023/11/20 10:50:35;;;;;;;9.60;2.13;;;19.50;57.10;;;;;;5053243;28;20294;-62
2023/11/20 10:53:07;;;;;;;11.50;2.08;;;19.50;57.50;;;;;;5053532;28;20215;-62
2023/11/20 10:55:43;;;;;;;6.60;2.30;;;19.50;57.60;;;;;;5053342;28;20184;-62
2023/11/20 10:58:11;;;;;;;6.53;1.73;;;19.60;57.90;;;;;;5053448;28;20694;-61
2023/11/20 11:00:40;;;;;;;7.80;1.88;;;19.60;58.20;;;;;;5053028;28;20203;-62
2023/11/20 11:03:11;;;;;;;5.93;2.05;;;19.60;58.30;;;;;;5053165;28;20222;-60
2023/11/20 11:05:39;;;;;;;8.75;1.90;;;19.60;58.20;;;;;;5052935;28;20829;-61
2023/11/20 11:08:09;;;;;;;10.90;1.90;;;19.70;58.50;;;;;;5053111;28;20240;-60
2023/11/20 11:10:40;;;;;;;6.63;2.38;;;19.70;58.50;;;;;;5053086;28;20227;-59
2023/11/20 11:13:08;;;;;;;8.82;1.90;;;19.70;58.30;;;;;;5053290;28;20224;-61
2023/11/20 11:15:36;;;;;;;8.95;2.05;;;19.70;58.20;;;;;;5053076;28;20202;-61
2023/11/20 11:18:05;;;;;;;7.53;1.83;;;19.70;58.10;;;;;;5052753;28;20226;-62
2023/11/20 11:20:43;;;;;;;6.22;2.00;;;19.70;57.90;;;;;;5052939;28;20192;-61
2023/11/20 11:23:12;;;;;;;7.53;1.92;;;19.70;57.80;;;;;;5052957;28;20219;-62
2023/11/20 11:25:45;;;;;;;5.78;1.80;;;19.70;57.70;;;;;;5053104;28;20283;-61
2023/11/20 11:28:15;;;;;;;8.32;1.88;;;19.70;57.50;;;;;;5052867;28;20222;-61
2023/11/20 11:30:44;;;;;;;4.40;1.48;;;19.70;57.40;;;;;;5052599;28;20265;-60
2023/11/20 11:33:42;;;;;;;6.40;2.10;;;19.70;57.20;;;;;;5052510;28;20704;-61
2023/11/20 11:36:22;;;;;;;6.93;1.90;;;19.70;57.10;;;;;;5048971;28;20785;-60
2023/11/20 11:39:03;;;;;;;5.25;1.67;;;19.70;57.00;;;;;;5052655;28;20266;-61
2023/11/20 11:41:49;;;;;;;5.40;1.73;;;19.70;56.80;;;;;;5052105;28;20665;-62
2023/11/20 11:44:24;;;;;;;7.13;1.73;;;19.70;56.80;;;;;;5052499;28;20196;-62
2023/11/20 11:46:52;;;;;;;5.55;1.63;;;19.70;56.70;;;;;;5052449;28;20298;-60
2023/11/20 11:49:20;;;;;;;7.25;1.75;;;19.70;56.60;;;;;;5052526;28;20199;-61
2023/11/20 11:51:53;;;;;;;3.80;1.27;;;19.70;56.40;;;;;;5051980;28;20231;-61
2023/11/20 11:54:21;;;;;;;3.80;1.48;;;19.70;56.30;;;;;;5051933;28;20535;-61
2023/11/20 11:57:00;;;;;;;7.68;1.75;;;19.70;56.20;;;;;;5052228;28;20307;-61
2023/11/20 11:59:38;;;;;;;5.93;1.70;;;19.70;56.10;;;;;;5052305;28;20275;-60
2023/11/20 12:02:05;;;;;;;6.63;1.67;;;19.70;55.90;;;;;;5052329;28;20234;-61
2023/11/20 12:05:03;;;;;;;7.07;1.70;;;19.70;55.90;;;;;;5052019;28;20187;-61
2023/11/20 12:07:53;;;;;;;8.05;1.67;;;19.70;55.70;;;;;;5052178;28;20241;-60
2023/11/20 12:10:50;;;;;;;4.70;1.60;;;19.70;55.50;;;;;;5052460;28;20196;-62
2023/11/20 12:13:18;;;;;;;6.03;1.60;;;19.70;55.50;;;;;;5052391;28;20215;-61
2023/11/20 12:15:50;;;;;;;5.45;1.35;;;19.70;55.40;;;;;;5051919;28;20602;-61
2023/11/20 12:18:22;;;;;;;3.50;1.40;;;19.70;55.40;;;;;;5052306;28;20230;-62
2023/11/20 12:21:07;;;;;;;5.57;1.35;;;19.70;56.00;;;;;;5052280;28;20198;-61
2023/11/20 12:23:35;;;;;;;3.88;1.35;;;19.70;55.30;;;;;;5051322;28;20219;-60
2023/11/20 12:26:04;;;;;;;5.60;1.35;;;19.70;55.30;;;;;;5051805;28;20711;-60
2023/11/20 12:28:32;;;;;;;6.60;1.42;;;19.70;55.40;;;;;;5052283;28;20265;-62
2023/11/20 12:31:03;;;;;;;4.55;1.50;;;19.70;55.30;;;;;;5051672;28;20693;-60
2023/11/20 12:33:31;;;;;;;5.65;1.80;;;19.70;55.30;;;;;;5052090;28;20219;-60
2023/11/20 12:36:00;;;;;;;3.58;1.52;;;19.80;55.40;;;;;;5051697;28;20192;-62
2023/11/20 12:38:28;;;;;;;5.85;1.90;;;19.70;55.20;;;;;;5052104;28;20222;-62
2023/11/20 12:40:59;;;;;;;4.50;1.17;;;19.70;55.10;;;;;;5051979;28;20190;-62
2023/11/20 12:43:26;;;;;;;5.82;1.50;;;19.70;55.10;;;;;;5051799;28;20697;-61
2023/11/20 12:45:53;;;;;;;9.57;1.40;;;19.70;55.60;;;;;;5051954;28;20219;-61
2023/11/20 12:48:20;;;;;;;5.30;1.40;;;19.70;55.00;;;;;;5051783;28;20588;-60